Kimbro, Texas
Current Conditions -  °F | °C
As of 8:15 PM on Saturday 22 Nov 2014 (Local Time) from KEDC Reporting Station
Heavy Rain Heavy Rain  
Wind Chill: 59°   Ceiling: NA
Heat Index: 59°   Visibility: 0.5mi
Dew Point: 59°   Wind: 8mph
Humidity: 100%   Direction: 320°NW
Pressure: 29.77"   Gusts: NA
Location:  30.352°N, 97.5205°W
Report Text: KEDC 230215Z AUTO 32007KT 1/2SM +RA 15/15 A2977 RMK AO2 P0036
Loading
Personal Weather Stations






























Interactive Weather Map New forecast layout! Learn more

10-Day Weather Forecast

Advertisements
Track Severe Weather on mobile